Cataula, Georgia
Current Conditions -  °F | °C
As of 11:51 AM on Sunday 21 Dec 2014 (Local Time) from KCSG Reporting Station
Haze Haze  
Wind Chill: 51°   Ceiling: 800
Heat Index: 51°   Visibility: 5mi
Dew Point: 47°   Wind: 10mph
Humidity: 86%   Direction: 90°E
Pressure: 30.16"   Gusts: NA
Location:  32.66°N, 84.87°W
Report Text: KCSG 211651Z 09009KT 5SM BR OVC008 11/08 A3016 RMK AO2 SLP211 T01060083
Loading
Personal Weather Stations






























Interactive Weather Map New forecast layout! Learn more

10-Day Weather Forecast

Advertisements
Track Severe Weather on mobile